Time,TemperatureF,DewpointF,PressureIn,WindDirection,WindDirectionDegrees,WindSpeedMPH,WindSpeedGustMPH,Humidity,HourlyPrecipIn,Conditions,Clouds,dailyrainin,SoftwareType,DateUTC
2013-07-25 00:00:00,82.5,69.6,29.88,ESE,111,4.0,10.0,65,0.00,,---,0.00,VWS V14.01,2013-07-25 05:00:00,
2013-07-25 00:03:00,82.4,69.5,29.88,ESE,102,5.0,7.0,65,0.00,,---,0.00,VWS V14.01,2013-07-25 05:03:00,
2013-07-25 00:06:00,82.3,69.8,29.88,ESE,123,3.0,7.0,66,0.00,,---,0.00,VWS V14.01,2013-07-25 05:06:00,
2013-07-25 00:09:00,82.3,69.8,29.88,ESE,122,5.0,7.0,66,0.00,,---,0.00,VWS V14.01,2013-07-25 05:09:00,
2013-07-25 00:12:00,82.2,69.7,29.88,ESE,112,4.0,7.0,66,0.00,,---,0.00,VWS V14.01,2013-07-25 05:12:00,
2013-07-25 00:15:00,82.2,69.7,29.88,ESE,107,2.0,7.0,66,0.00,,---,0.00,VWS V14.01,2013-07-25 05:15:00,
2013-07-25 00:18:00,82.1,69.6,29.88,ESE,107,3.0,7.0,66,0.00,,---,0.00,VWS V14.01,2013-07-25 05:18:00,
2013-07-25 00:21:00,82.1,70.1,29.88,East,100,6.0,8.0,67,0.00,,---,0.00,VWS V14.01,2013-07-25 05:21:00,
2013-07-25 00:24:00,82.1,70.1,29.88,ESE,105,4.0,8.0,67,0.00,,---,0.00,VWS V14.01,2013-07-25 05:24:00,
2013-07-25 00:27:00,82.1,70.1,29.88,East,97,3.0,8.0,67,0.00,,---,0.00,VWS V14.01,2013-07-25 05:27:00,
2013-07-25 00:30:00,82.1,70.1,29.87,ESE,104,1.0,8.0,67,0.00,,---,0.00,VWS V14.01,2013-07-25 05:30:00,
2013-07-25 00:33:00,82.0,70.0,29.88,ESE,113,4.0,9.0,67,0.00,,---,0.00,VWS V14.01,2013-07-25 05:33:00,
2013-07-25 00:36:00,82.0,70.4,29.88,ESE,109,5.0,9.0,68,0.00,,---,0.00,VWS V14.01,2013-07-25 05:36:00,
2013-07-25 00:39:00,81.9,70.3,29.87,ESE,109,3.0,9.0,68,0.00,,---,0.00,VWS V14.01,2013-07-25 05:39:00,
2013-07-25 00:42:00,81.9,70.3,29.87,ESE,105,4.0,9.0,68,0.00,,---,0.00,VWS V14.01,2013-07-25 05:42:00,
2013-07-25 00:45:00,81.8,70.2,29.87,ESE,105,1.0,9.0,68,0.00,,---,0.00,VWS V14.01,2013-07-25 05:45:00,
2013-07-25 00:48:00,81.7,70.1,29.87,East,96,3.0,9.0,68,0.00,,---,0.00,VWS V14.01,2013-07-25 05:48:00,
2013-07-25 00:51:00,81.7,70.6,29.88,ESE,121,3.0,9.0,69,0.00,,---,0.00,VWS V14.01,2013-07-25 05:51:00,
2013-07-25 00:54:00,81.6,70.4,29.88,ESE,109,4.0,9.0,69,0.00,,---,0.00,VWS V14.01,2013-07-25 05:54:00,
2013-07-25 00:57:00,81.5,70.4,29.88,SE,126,3.0,9.0,69,0.00,,---,0.00,VWS V14.01,2013-07-25 05:57:00,
2013-07-25 01:00:00,81.5,70.4,29.88,ESE,109,3.0,9.0,69,0.00,,---,0.00,VWS V14.01,2013-07-25 06:00:00,
2013-07-25 01:03:00,81.4,70.3,29.88,ESE,122,2.0,6.0,69,0.00,,---,0.00,VWS V14.01,2013-07-25 06:03:00,
2013-07-25 01:06:00,81.3,70.6,29.87,ESE,108,4.0,6.0,70,0.00,,---,0.00,VWS V14.01,2013-07-25 06:06:00,
2013-07-25 01:09:00,81.2,70.5,29.88,East,101,5.0,6.0,70,0.00,,---,0.00,VWS V14.01,2013-07-25 06:09:00,
2013-07-25 01:12:00,81.2,70.5,29.88,ESE,109,0.0,6.0,70,0.00,,---,0.00,VWS V14.01,2013-07-25 06:12:00,
2013-07-25 01:15:00,81.1,70.8,29.87,ESE,113,3.0,6.0,71,0.00,,---,0.00,VWS V14.01,2013-07-25 06:15:00,
2013-07-25 01:18:00,81.0,70.7,29.87,ESE,117,4.0,8.0,71,0.00,,---,0.00,VWS V14.01,2013-07-25 06:18:00,
2013-07-25 01:21:00,81.0,70.7,29.87,ESE,111,7.0,8.0,71,0.00,,---,0.00,VWS V14.01,2013-07-25 06:21:00,
2013-07-25 01:24:00,80.9,70.6,29.87,SE,131,1.0,8.0,71,0.00,,---,0.00,VWS V14.01,2013-07-25 06:24:00,
2013-07-25 01:30:00,80.6,70.8,29.88,ESE,113,3.0,8.0,72,0.00,,---,0.00,VWS V14.01,2013-07-25 06:30:00,
2013-07-25 01:33:00,80.5,70.7,29.88,SE,144,4.0,6.0,72,0.00,,---,0.00,VWS V14.01,2013-07-25 06:33:00,
2013-07-25 01:36:00,80.4,70.6,29.87,ESE,121,4.0,6.0,72,0.00,,---,0.00,VWS V14.01,2013-07-25 06:36:00,
2013-07-25 01:39:00,80.3,70.9,29.87,ESE,121,1.0,6.0,73,0.00,,---,0.00,VWS V14.01,2013-07-25 06:39:00,
2013-07-25 01:42:00,80.2,70.8,29.87,ESE,123,2.0,6.0,73,0.00,,---,0.00,VWS V14.01,2013-07-25 06:42:00,
2013-07-25 01:45:00,80.2,70.8,29.87,SE,126,3.0,7.0,73,0.00,,---,0.00,VWS V14.01,2013-07-25 06:45:00,
2013-07-25 01:48:00,80.1,70.7,29.87,ESE,121,1.0,7.0,73,0.00,,---,0.00,VWS V14.01,2013-07-25 06:48:00,
2013-07-25 02:00:00,79.9,70.9,29.88,ESE,119,0.0,7.0,74,0.00,,---,0.00,VWS V14.01,2013-07-25 07:00:00,
2013-07-25 02:04:00,79.8,70.8,29.88,ESE,119,0.0,1.0,74,0.00,,---,0.00,VWS V14.01,2013-07-25 07:04:00,
2013-07-25 02:07:00,79.7,70.7,29.88,ESE,117,2.0,5.0,74,0.00,,---,0.00,VWS V14.01,2013-07-25 07:07:00,
2013-07-25 02:16:00,79.5,70.9,29.88,SE,127,5.0,5.0,75,0.00,,---,0.00,VWS V14.01,2013-07-25 07:16:00,
2013-07-25 02:22:00,79.4,70.8,29.88,ESE,111,4.0,8.0,75,0.00,,---,0.00,VWS V14.01,2013-07-25 07:22:00,
2013-07-25 02:28:00,79.3,71.1,29.88,ESE,111,7.0,8.0,76,0.00,,---,0.00,VWS V14.01,2013-07-25 07:28:00,
2013-07-25 02:30:00,79.2,71.0,29.88,SE,132,2.0,8.0,76,0.00,,---,0.00,VWS V14.01,2013-07-25 07:30:00,
2013-07-25 02:37:00,79.1,70.9,29.88,ESE,119,3.0,7.0,76,0.00,,---,0.00,VWS V14.01,2013-07-25 07:37:00,
2013-07-25 02:40:00,79.1,70.9,29.88,ESE,121,2.0,8.0,76,0.00,,---,0.00,VWS V14.01,2013-07-25 07:40:00,
2013-07-25 02:46:00,78.9,71.1,29.88,SE,128,5.0,8.0,77,0.00,,---,0.00,VWS V14.01,2013-07-25 07:46:00,
2013-07-25 02:49:00,78.9,71.1,29.88,SE,136,4.0,8.0,77,0.00,,---,0.00,VWS V14.01,2013-07-25 07:49:00,
2013-07-25 02:50:00,80.0,70.6,29.88,ESE,121,1.0,7.0,73,0.00,,---,0.00,VWS V14.01,2013-07-25 07:50:00,
2013-07-25 02:58:00,78.7,70.9,29.88,ESE,121,0.0,8.0,77,0.00,,---,0.00,VWS V14.01,2013-07-25 07:58:00,
2013-07-25 02:59:00,79.8,70.8,29.88,ESE,119,0.0,0.0,74,0.00,,---,0.00,VWS V14.01,2013-07-25 07:59:00,
2013-07-25 03:00:00,78.6,70.8,29.88,SE,130,1.0,8.0,77,0.00,,---,0.00,VWS V14.01,2013-07-25 08:00:00,
2013-07-25 03:01:00,78.6,70.8,29.88,SE,128,0.0,2.0,77,0.00,,---,0.00,VWS V14.01,2013-07-25 08:01:00,
2013-07-25 03:04:00,78.6,71.2,29.89,SE,128,0.0,2.0,78,0.00,,---,0.00,VWS V14.01,2013-07-25 08:04:00,
2013-07-25 03:08:00,79.7,70.7,29.88,SE,128,1.0,5.0,74,0.00,,---,0.00,VWS V14.01,2013-07-25 08:08:00,
2013-07-25 03:10:00,78.6,71.2,29.89,SE,128,0.0,2.0,78,0.00,,---,0.00,VWS V14.01,2013-07-25 08:10:00,
2013-07-25 03:18:00,79.4,70.8,29.88,SE,124,3.0,8.0,75,0.00,,---,0.00,VWS V14.01,2013-07-25 08:18:00,
2013-07-25 03:19:00,78.4,71.0,29.89,SE,128,0.0,4.0,78,0.00,,---,0.00,VWS V14.01,2013-07-25 08:19:00,
2013-07-25 03:24:00,79.4,70.8,29.88,ESE,111,3.0,8.0,75,0.00,,---,0.00,VWS V14.01,2013-07-25 08:24:00,
2013-07-25 03:28:00,78.2,71.2,29.89,SE,129,2.0,4.0,79,0.00,,---,0.00,VWS V14.01,2013-07-25 08:28:00,
2013-07-25 03:30:00,79.2,71.0,29.88,SE,126,4.0,4.0,76,0.00,,---,0.00,VWS V14.01,2013-07-25 08:30:00,
2013-07-25 03:31:00,78.1,71.1,29.89,ESE,119,0.0,3.0,79,0.00,,---,0.00,VWS V14.01,2013-07-25 08:31:00,
2013-07-25 03:38:00,78.1,71.1,29.89,ESE,112,3.0,7.0,79,0.00,,---,0.00,VWS V14.01,2013-07-25 08:38:00,
2013-07-25 03:42:00,79.0,70.8,29.88,SE,124,3.0,8.0,76,0.00,,---,0.00,VWS V14.01,2013-07-25 08:42:00,
2013-07-25 03:50:00,78.2,71.2,29.89,ESE,112,3.0,7.0,79,0.00,,---,0.00,VWS V14.01,2013-07-25 08:50:00,
2013-07-25 03:51:00,78.8,71.0,29.88,SE,136,0.0,8.0,77,0.00,,---,0.00,VWS V14.01,2013-07-25 08:51:00,
2013-07-25 03:53:00,78.1,71.1,29.89,ESE,121,5.0,7.0,79,0.00,,---,0.00,VWS V14.01,2013-07-25 08:53:00,
2013-07-25 04:12:00,78.5,71.1,29.89,SE,128,0.0,4.0,78,0.00,,---,0.00,VWS V14.01,2013-07-25 09:12:00,
2013-07-25 04:15:00,78.5,71.1,29.89,SE,128,0.0,4.0,78,0.00,,---,0.00,VWS V14.01,2013-07-25 09:15:00,
2013-07-25 04:21:00,78.3,70.9,29.89,SE,128,0.0,4.0,78,0.00,,---,0.00,VWS V14.01,2013-07-25 09:21:00,
2013-07-25 04:24:00,78.2,71.2,29.89,SE,128,0.0,4.0,79,0.00,,---,0.00,VWS V14.01,2013-07-25 09:24:00,
2013-07-25 04:28:00,78.1,71.1,29.89,ESE,119,1.0,4.0,79,0.00,,---,0.00,VWS V14.01,2013-07-25 09:28:00,
2013-07-25 04:33:00,78.1,71.1,29.89,ESE,119,0.0,3.0,79,0.00,,---,0.00,VWS V14.01,2013-07-25 09:33:00,
2013-07-25 04:39:00,78.2,71.2,29.89,ESE,113,1.0,7.0,79,0.00,,---,0.00,VWS V14.01,2013-07-25 09:39:00,
2013-07-25 04:45:00,78.2,71.2,29.89,ESE,111,2.0,7.0,79,0.00,,---,0.00,VWS V14.01,2013-07-25 09:45:00,
2013-07-25 04:54:00,78.0,71.3,29.90,ESE,121,1.0,7.0,80,0.00,,---,0.00,VWS V14.01,2013-07-25 09:54:00,
2013-07-25 04:57:00,78.0,71.3,29.90,ESE,117,3.0,7.0,80,0.00,,---,0.00,VWS V14.01,2013-07-25 09:57:00,
2013-07-25 04:58:00,78.0,71.3,29.90,SE,125,2.0,7.0,80,0.00,,---,0.00,VWS V14.01,2013-07-25 09:58:00,
2013-07-25 05:00:00,77.9,71.2,29.89,SE,126,4.0,5.0,80,0.00,,---,0.00,VWS V14.01,2013-07-25 10:00:00,
2013-07-25 05:04:00,77.9,71.2,29.90,SE,132,4.0,8.0,80,0.00,,---,0.00,VWS V14.01,2013-07-25 10:04:00,
2013-07-25 05:07:00,77.8,71.1,29.90,SE,136,5.0,8.0,80,0.00,,---,0.00,VWS V14.01,2013-07-25 10:07:00,
2013-07-25 05:10:00,77.8,71.1,29.90,SE,136,0.0,8.0,80,0.00,,---,0.00,VWS V14.01,2013-07-25 10:10:00,
2013-07-25 05:13:00,77.7,71.4,29.89,SE,132,4.0,8.0,81,0.00,,---,0.00,VWS V14.01,2013-07-25 10:13:00,
2013-07-25 05:16:00,77.6,71.3,29.90,SE,130,3.0,8.0,81,0.00,,---,0.00,VWS V14.01,2013-07-25 10:16:00,
2013-07-25 05:22:00,77.6,71.3,29.90,SE,128,4.0,8.0,81,0.00,,---,0.00,VWS V14.01,2013-07-25 10:22:00,
2013-07-25 05:25:00,77.6,71.3,29.90,ESE,119,7.0,8.0,81,0.00,,---,0.00,VWS V14.01,2013-07-25 10:25:00,
2013-07-25 05:28:00,77.6,71.3,29.90,SE,128,3.0,8.0,81,0.00,,---,0.00,VWS V14.01,2013-07-25 10:28:00,
2013-07-25 05:31:00,77.5,71.2,29.90,SE,132,0.0,6.0,81,0.00,,---,0.00,VWS V14.01,2013-07-25 10:31:00,
2013-07-25 05:34:00,77.5,71.2,29.90,SE,132,0.0,6.0,81,0.00,,---,0.00,VWS V14.01,2013-07-25 10:34:00,
2013-07-25 05:37:00,77.4,71.1,29.90,SE,128,2.0,6.0,81,0.00,,---,0.00,VWS V14.01,2013-07-25 10:37:00,
2013-07-25 05:43:00,77.3,71.4,29.90,ESE,121,0.0,6.0,82,0.00,,---,0.00,VWS V14.01,2013-07-25 10:43:00,
2013-07-25 05:49:00,77.3,71.4,29.90,SE,129,6.0,7.0,82,0.00,,---,0.00,VWS V14.01,2013-07-25 10:49:00,
2013-07-25 05:52:00,77.3,71.4,29.90,SE,128,6.0,8.0,82,0.00,,---,0.00,VWS V14.01,2013-07-25 10:52:00,
2013-07-25 05:55:00,77.2,71.3,29.90,ESE,117,0.0,8.0,82,0.00,,---,0.00,VWS V14.01,2013-07-25 10:55:00,
2013-07-25 05:58:00,77.2,71.3,29.90,SE,128,2.0,8.0,82,0.00,,---,0.00,VWS V14.01,2013-07-25 10:58:00,
2013-07-25 06:01:00,77.1,71.2,29.90,ESE,123,0.0,7.0,82,0.00,,---,0.00,VWS V14.01,2013-07-25 11:01:00,
2013-07-25 06:07:00,77.0,71.4,29.90,SE,132,2.0,7.0,83,0.00,,---,0.00,VWS V14.01,2013-07-25 11:07:00,
2013-07-25 06:10:00,77.0,71.4,29.90,SE,132,0.0,7.0,83,0.00,,---,0.00,VWS V14.01,2013-07-25 11:10:00,
2013-07-25 06:13:00,76.9,71.3,29.90,ESE,119,0.0,7.0,83,0.00,,---,0.00,VWS V14.01,2013-07-25 11:13:00,
2013-07-25 06:19:00,76.8,71.2,29.90,ESE,112,0.0,7.0,83,0.00,,---,0.00,VWS V14.01,2013-07-25 11:19:00,
2013-07-25 06:22:00,76.8,71.2,29.90,SE,133,0.0,7.0,83,0.00,,---,0.00,VWS V14.01,2013-07-25 11:22:00,
2013-07-25 06:25:00,76.7,71.2,29.90,SE,132,0.0,7.0,83,0.00,,---,0.00,VWS V14.01,2013-07-25 11:25:00,
2013-07-25 06:28:00,76.7,71.2,29.90,ESE,118,3.0,7.0,83,0.00,,---,0.00,VWS V14.01,2013-07-25 11:28:00,
2013-07-25 06:34:00,76.5,71.3,29.90,SE,139,1.0,4.0,84,0.00,,---,0.00,VWS V14.01,2013-07-25 11:34:00,
2013-07-25 06:37:00,76.5,71.3,29.90,SE,145,0.0,4.0,84,0.00,,---,0.00,VWS V14.01,2013-07-25 11:37:00,
2013-07-25 06:40:00,76.3,71.5,29.90,SE,128,1.0,4.0,85,0.00,,---,0.00,VWS V14.01,2013-07-25 11:40:00,
2013-07-25 06:44:00,76.3,71.5,29.90,SE,132,0.0,5.0,85,0.00,,---,0.00,VWS V14.01,2013-07-25 11:44:00,
2013-07-25 06:47:00,76.3,71.5,29.91,ESE,122,0.0,5.0,85,0.00,,---,0.00,VWS V14.01,2013-07-25 11:47:00,
2013-07-25 06:50:00,76.2,71.4,29.91,ESE,116,0.0,5.0,85,0.00,,---,0.00,VWS V14.01,2013-07-25 11:50:00,
2013-07-25 06:56:00,76.2,71.4,29.91,SE,145,2.0,5.0,85,0.00,,---,0.00,VWS V14.01,2013-07-25 11:56:00,
2013-07-25 06:59:00,76.1,71.3,29.91,SE,140,0.0,0.0,85,0.00,,---,0.00,VWS V14.01,2013-07-25 11:59:00,
2013-07-25 07:05:00,76.0,71.2,29.91,SE,139,0.0,3.0,85,0.00,,---,0.00,VWS V14.01,2013-07-25 12:05:00,
2013-07-25 07:08:00,75.9,71.4,29.91,SE,139,0.0,3.0,86,0.00,,---,0.00,VWS V14.01,2013-07-25 12:08:00,
2013-07-25 07:11:00,75.8,71.3,29.91,SE,139,0.0,3.0,86,0.00,,---,0.00,VWS V14.01,2013-07-25 12:11:00,
2013-07-25 07:14:00,75.8,71.3,29.91,SE,139,0.0,3.0,86,0.00,,---,0.00,VWS V14.01,2013-07-25 12:14:00,
2013-07-25 07:17:00,75.8,71.3,29.91,SE,139,0.0,3.0,86,0.00,,---,0.00,VWS V14.01,2013-07-25 12:17:00,
2013-07-25 07:23:00,75.8,71.7,29.91,SE,139,0.0,3.0,87,0.00,,---,0.00,VWS V14.01,2013-07-25 12:23:00,
2013-07-25 07:28:00,76.0,71.5,29.91,SE,139,0.0,3.0,86,0.00,,---,0.00,VWS V14.01,2013-07-25 12:28:00,
2013-07-25 07:32:00,76.0,71.5,29.91,SE,138,0.0,2.0,86,0.00,,---,0.00,VWS V14.01,2013-07-25 12:32:00,
2013-07-25 07:38:00,76.3,71.8,29.91,SE,132,0.0,4.0,86,0.00,,---,0.00,VWS V14.01,2013-07-25 12:38:00,
2013-07-25 07:44:00,76.7,72.2,29.91,ESE,123,4.0,5.0,86,0.00,,---,0.00,VWS V14.01,2013-07-25 12:44:00,
2013-07-25 07:47:00,76.9,72.1,29.91,SE,133,4.0,5.0,85,0.00,,---,0.00,VWS V14.01,2013-07-25 12:47:00,
2013-07-25 07:50:00,77.1,72.2,29.91,SE,134,3.0,6.0,85,0.00,,---,0.00,VWS V14.01,2013-07-25 12:50:00,
2013-07-25 07:53:00,77.3,72.4,29.91,SE,131,4.0,7.0,85,0.00,,---,0.00,VWS V14.01,2013-07-25 12:53:00,
2013-07-25 07:56:00,77.5,72.6,29.91,SSE,150,4.0,7.0,85,0.00,,---,0.00,VWS V14.01,2013-07-25 12:56:00,
2013-07-25 07:58:00,77.7,72.5,29.91,SSE,149,3.0,7.0,84,0.00,,---,0.00,VWS V14.01,2013-07-25 12:58:00,
2013-07-25 08:05:00,78.1,72.9,29.91,SE,138,4.0,7.0,84,0.00,,---,0.00,VWS V14.01,2013-07-25 13:05:00,
2013-07-25 08:08:00,78.3,73.1,29.91,SE,139,2.0,7.0,84,0.00,,---,0.00,VWS V14.01,2013-07-25 13:08:00,
2013-07-25 08:12:00,78.5,72.9,29.91,SE,138,6.0,7.0,83,0.00,,---,0.00,VWS V14.01,2013-07-25 13:12:00,
2013-07-25 08:18:00,78.7,72.8,29.91,SE,141,6.0,8.0,82,0.00,,---,0.00,VWS V14.01,2013-07-25 13:18:00,
2013-07-25 08:24:00,78.5,72.9,29.91,SE,136,4.0,9.0,83,0.00,,---,0.00,VWS V14.01,2013-07-25 13:24:00,
2013-07-25 08:27:00,78.5,72.9,29.91,SE,142,2.0,9.0,83,0.00,,---,0.00,VWS V14.01,2013-07-25 13:27:00,
2013-07-25 08:30:00,78.5,72.9,29.91,SE,127,4.0,5.0,83,0.00,,---,0.00,VWS V14.01,2013-07-25 13:30:00,
2013-07-25 08:33:00,78.5,72.9,29.91,SSE,152,3.0,5.0,83,0.00,,---,0.00,VWS V14.01,2013-07-25 13:33:00,
2013-07-25 08:36:00,78.5,72.9,29.91,SE,139,4.0,6.0,83,0.00,,---,0.00,VWS V14.01,2013-07-25 13:36:00,
2013-07-25 08:39:00,78.5,72.9,29.91,SE,128,2.0,6.0,83,0.00,,---,0.00,VWS V14.01,2013-07-25 13:39:00,
2013-07-25 08:45:00,78.5,72.9,29.92,SE,142,5.0,6.0,83,0.00,,---,0.00,VWS V14.01,2013-07-25 13:45:00,
2013-07-25 08:48:00,78.6,73.0,29.92,SE,136,1.0,6.0,83,0.00,,---,0.00,VWS V14.01,2013-07-25 13:48:00,
2013-07-25 08:54:00,78.8,73.2,29.92,SE,130,1.0,6.0,83,0.00,,---,0.00,VWS V14.01,2013-07-25 13:54:00,
2013-07-25 08:58:00,79.2,73.6,29.92,SSE,152,3.0,6.0,83,0.00,,---,0.00,VWS V14.01,2013-07-25 13:58:00,
2013-07-25 09:00:00,79.3,73.7,29.92,SE,144,3.0,3.0,83,0.00,,---,0.00,VWS V14.01,2013-07-25 14:00:00,
2013-07-25 09:03:00,79.6,74.0,29.92,SE,136,0.0,4.0,83,0.00,,---,0.00,VWS V14.01,2013-07-25 14:03:00,
2013-07-25 09:09:00,80.5,74.1,29.92,SE,140,3.0,5.0,81,0.00,,---,0.00,VWS V14.01,2013-07-25 14:09:00,
2013-07-25 09:12:00,81.0,74.2,29.92,SSE,149,2.0,5.0,80,0.00,,---,0.00,VWS V14.01,2013-07-25 14:12:00,
2013-07-25 09:15:00,81.2,74.1,29.92,South,169,3.0,5.0,79,0.00,,---,0.00,VWS V14.01,2013-07-25 14:15:00,
2013-07-25 09:21:00,81.3,73.8,29.92,SSE,157,4.0,5.0,78,0.00,,---,0.00,VWS V14.01,2013-07-25 14:21:00,
2013-07-25 09:24:00,81.2,73.3,29.92,SE,128,3.0,5.0,77,0.00,,---,0.00,VWS V14.01,2013-07-25 14:24:00,
2013-07-25 09:27:00,81.3,73.8,29.92,SSE,148,2.0,5.0,78,0.00,,---,0.00,VWS V14.01,2013-07-25 14:27:00,
2013-07-25 09:28:00,81.3,73.4,29.92,SSE,165,3.0,5.0,77,0.00,,---,0.00,VWS V14.01,2013-07-25 14:28:00,
2013-07-25 09:33:00,81.5,74.0,29.92,SE,141,4.0,4.0,78,0.00,,---,0.00,VWS V14.01,2013-07-25 14:33:00,
2013-07-25 09:36:00,81.6,73.7,29.92,SSE,159,0.0,4.0,77,0.00,,---,0.00,VWS V14.01,2013-07-25 14:36:00,
2013-07-25 09:40:00,81.7,73.4,29.92,SE,132,2.0,4.0,76,0.00,,---,0.00,VWS V14.01,2013-07-25 14:40:00,
2013-07-25 09:43:00,81.8,73.9,29.92,SE,132,0.0,4.0,77,0.00,,---,0.00,VWS V14.01,2013-07-25 14:43:00,
2013-07-25 09:46:00,81.9,73.6,29.92,SE,135,5.0,6.0,76,0.00,,---,0.00,VWS V14.01,2013-07-25 14:46:00,
2013-07-25 09:49:00,82.0,73.7,29.92,SE,132,2.0,6.0,76,0.00,,---,0.00,VWS V14.01,2013-07-25 14:49:00,
2013-07-25 09:52:00,82.0,74.1,29.92,SE,132,0.0,6.0,77,0.00,,---,0.00,VWS V14.01,2013-07-25 14:52:00,
2013-07-25 09:55:00,82.1,73.4,29.92,SE,143,0.0,6.0,75,0.00,,---,0.00,VWS V14.01,2013-07-25 14:55:00,
2013-07-25 09:58:00,82.2,73.9,29.92,SE,140,0.0,6.0,76,0.00,,---,0.00,VWS V14.01,2013-07-25 14:58:00,
2013-07-25 10:01:00,82.4,74.1,29.92,SSE,153,4.0,4.0,76,0.00,,---,0.00,VWS V14.01,2013-07-25 15:01:00,
2013-07-25 10:04:00,82.5,74.2,29.92,SSE,162,0.0,5.0,76,0.00,,---,0.00,VWS V14.01,2013-07-25 15:04:00,
2013-07-25 10:10:00,83.0,73.9,29.92,South,177,2.0,6.0,74,0.00,,---,0.00,VWS V14.01,2013-07-25 15:10:00,
2013-07-25 10:13:00,83.3,73.8,29.92,South,169,0.0,6.0,73,0.00,,---,0.00,VWS V14.01,2013-07-25 15:13:00,
2013-07-25 10:19:00,84.0,74.0,29.92,SSW,200,2.0,6.0,72,0.00,,---,0.00,VWS V14.01,2013-07-25 15:19:00,
2013-07-25 10:22:00,84.2,74.2,29.92,SE,133,3.0,6.0,72,0.00,,---,0.00,VWS V14.01,2013-07-25 15:22:00,
2013-07-25 10:25:00,84.2,74.2,29.92,SSE,162,3.0,6.0,72,0.00,,---,0.00,VWS V14.01,2013-07-25 15:25:00,
2013-07-25 10:28:00,84.3,73.9,29.92,South,189,0.0,6.0,71,0.00,,---,0.00,VWS V14.01,2013-07-25 15:28:00,
2013-07-25 10:34:00,84.3,73.9,29.93,South,173,1.0,4.0,71,0.00,,---,0.00,VWS V14.01,2013-07-25 15:34:00,
2013-07-25 10:37:00,84.4,74.4,29.93,South,184,0.0,4.0,72,0.00,,---,0.00,VWS V14.01,2013-07-25 15:37:00,
2013-07-25 10:40:00,84.5,74.1,29.93,SSW,192,0.0,4.0,71,0.00,,---,0.00,VWS V14.01,2013-07-25 15:40:00,
2013-07-25 10:43:00,84.6,74.2,29.93,South,169,1.0,4.0,71,0.00,,---,0.00,VWS V14.01,2013-07-25 15:43:00,
2013-07-25 10:46:00,84.8,73.9,29.94,South,169,0.0,4.0,70,0.00,,---,0.00,VWS V14.01,2013-07-25 15:46:00,
2013-07-25 10:52:00,85.1,74.6,29.94,South,169,0.0,4.0,71,0.00,,---,0.00,VWS V14.01,2013-07-25 15:52:00,
2013-07-25 10:55:00,85.3,74.4,29.95,South,169,0.0,4.0,70,0.00,,---,0.00,VWS V14.01,2013-07-25 15:55:00,
2013-07-25 10:58:00,85.4,74.1,29.95,SW,217,0.0,4.0,69,0.00,,---,0.00,VWS V14.01,2013-07-25 15:58:00,
2013-07-25 11:01:00,85.4,74.1,29.95,SW,217,0.0,0.0,69,0.00,,---,0.00,VWS V14.01,2013-07-25 16:01:00,
2013-07-25 11:05:00,85.4,74.5,29.95,SW,235,0.0,2.0,70,0.00,,---,0.00,VWS V14.01,2013-07-25 16:05:00,
2013-07-25 11:08:00,85.4,74.5,29.95,WSW,243,3.0,3.0,70,0.00,,---,0.00,VWS V14.01,2013-07-25 16:08:00,
2013-07-25 11:14:00,85.4,74.9,29.96,NNW,340,3.0,4.0,71,0.00,,---,0.00,VWS V14.01,2013-07-25 16:14:00,
2013-07-25 11:20:00,85.2,74.3,29.97,NNW,330,5.0,9.0,70,0.00,,---,0.00,VWS V14.01,2013-07-25 16:20:00,
2013-07-25 11:23:00,84.9,74.4,29.97,North,5,5.0,10.0,71,0.00,,---,0.00,VWS V14.01,2013-07-25 16:23:00,
2013-07-25 11:26:00,84.4,74.0,29.98,NNW,335,7.0,14.0,71,0.00,,---,0.00,VWS V14.01,2013-07-25 16:26:00,
2013-07-25 11:28:00,83.9,73.9,29.98,NNW,347,7.0,15.0,72,0.00,,---,0.00,VWS V14.01,2013-07-25 16:28:00,
2013-07-25 11:29:00,83.8,73.8,29.98,NNW,336,11.0,12.0,72,0.00,,---,0.00,VWS V14.01,2013-07-25 16:29:00,
2013-07-25 11:35:00,82.6,73.9,29.98,NNW,348,8.0,17.0,75,0.00,,---,0.00,VWS V14.01,2013-07-25 16:35:00,
2013-07-25 11:38:00,82.2,74.3,29.98,NNW,336,6.0,17.0,77,0.00,,---,0.00,VWS V14.01,2013-07-25 16:38:00,
2013-07-25 11:44:00,81.9,74.4,29.98,NNW,348,6.0,17.0,78,0.00,,---,0.00,VWS V14.01,2013-07-25 16:44:00,
2013-07-25 11:47:00,81.8,73.9,29.98,NNW,332,5.0,17.0,77,0.00,,---,0.00,VWS V14.01,2013-07-25 16:47:00,
2013-07-25 11:50:00,81.7,74.2,29.98,NNW,330,7.0,17.0,78,0.00,,---,0.00,VWS V14.01,2013-07-25 16:50:00,
2013-07-25 11:56:00,81.3,73.8,29.99,NNE,12,8.0,17.0,78,0.00,,---,0.00,VWS V14.01,2013-07-25 16:56:00,
2013-07-25 11:59:00,81.1,73.6,29.99,NNW,342,7.0,11.0,78,0.00,,---,0.00,VWS V14.01,2013-07-25 16:59:00,
2013-07-25 12:02:00,80.9,73.4,29.99,North,355,8.0,14.0,78,0.00,,---,0.00,VWS V14.01,2013-07-25 17:02:00,
2013-07-25 12:08:00,80.7,73.6,29.99,North,355,4.0,14.0,79,0.00,,---,0.00,VWS V14.01,2013-07-25 17:08:00,
2013-07-25 12:11:00,80.6,73.5,29.99,North,355,7.0,16.0,79,0.00,,---,0.00,VWS V14.01,2013-07-25 17:11:00,
2013-07-25 12:14:00,80.4,73.7,29.99,North,355,5.0,16.0,80,0.00,,---,0.00,VWS V14.01,2013-07-25 17:14:00,
2013-07-25 12:20:00,80.1,73.4,29.99,North,5,8.0,16.0,80,0.00,,---,0.00,VWS V14.01,2013-07-25 17:20:00,
2013-07-25 12:23:00,80.0,73.3,29.99,NNE,25,8.0,16.0,80,0.00,,---,0.00,VWS V14.01,2013-07-25 17:23:00,
2013-07-25 12:26:00,80.0,73.7,29.99,North,5,5.0,16.0,81,0.00,,---,0.00,VWS V14.01,2013-07-25 17:26:00,
2013-07-25 12:28:00,79.9,73.2,29.99,NNE,16,3.0,16.0,80,0.00,,---,0.00,VWS V14.01,2013-07-25 17:28:00,
2013-07-25 12:32:00,79.8,73.1,29.99,North,5,7.0,10.0,80,0.00,,---,0.00,VWS V14.01,2013-07-25 17:32:00,
2013-07-25 12:35:00,79.7,73.0,29.98,NNE,19,2.0,11.0,80,0.00,,---,0.00,VWS V14.01,2013-07-25 17:35:00,
2013-07-25 12:38:00,79.8,73.4,29.98,NNE,28,3.0,11.0,81,0.00,,---,0.00,VWS V14.01,2013-07-25 17:38:00,
2013-07-25 12:44:00,79.9,73.6,29.98,NNE,26,3.0,12.0,81,0.00,,---,0.00,VWS V14.01,2013-07-25 17:44:00,
2013-07-25 12:48:00,80.1,73.8,29.98,NNE,24,2.0,12.0,81,0.00,,---,0.00,VWS V14.01,2013-07-25 17:48:00,
2013-07-25 12:51:00,80.3,73.6,29.98,NNE,30,2.0,12.0,80,0.00,,---,0.00,VWS V14.01,2013-07-25 17:51:00,
2013-07-25 12:54:00,80.5,73.4,29.98,North,10,6.0,12.0,79,0.00,,---,0.00,VWS V14.01,2013-07-25 17:54:00,
2013-07-25 12:58:00,81.0,73.5,29.97,NE,38,2.0,12.0,78,0.00,,---,0.00,VWS V14.01,2013-07-25 17:58:00,
2013-07-25 13:00:00,81.2,74.1,29.98,NNE,24,7.0,7.0,79,0.00,,---,0.00,VWS V14.01,2013-07-25 18:00:00,
2013-07-25 13:03:00,81.5,74.0,29.97,NNE,22,3.0,7.0,78,0.00,,---,0.00,VWS V14.01,2013-07-25 18:03:00,
2013-07-25 13:06:00,81.8,73.9,29.97,NNE,25,5.0,7.0,77,0.00,,---,0.00,VWS V14.01,2013-07-25 18:06:00,
2013-07-25 13:09:00,82.0,74.1,29.96,ENE,57,3.0,9.0,77,0.00,,---,0.00,VWS V14.01,2013-07-25 18:09:00,
2013-07-25 13:12:00,82.2,73.9,29.96,NE,52,6.0,9.0,76,0.00,,---,0.00,VWS V14.01,2013-07-25 18:12:00,
2013-07-25 13:15:00,82.5,74.6,29.96,NE,52,5.0,10.0,77,0.00,,---,0.00,VWS V14.01,2013-07-25 18:15:00,
2013-07-25 13:18:00,82.8,74.9,29.97,North,5,4.0,10.0,77,0.00,,---,0.00,VWS V14.01,2013-07-25 18:18:00,
2013-07-25 13:21:00,83.4,75.1,29.96,NE,51,4.0,10.0,76,0.00,,---,0.00,VWS V14.01,2013-07-25 18:21:00,
2013-07-25 13:24:00,83.8,74.2,29.97,NE,49,5.0,10.0,73,0.00,,---,0.00,VWS V14.01,2013-07-25 18:24:00,
2013-07-25 13:28:00,84.0,75.2,29.96,NE,45,3.0,10.0,75,0.00,,---,0.00,VWS V14.01,2013-07-25 18:28:00,
2013-07-25 13:30:00,84.3,75.5,29.96,NE,53,2.0,9.0,75,0.00,,---,0.00,VWS V14.01,2013-07-25 18:30:00,
2013-07-25 13:39:00,86.2,76.1,29.96,ENE,74,1.0,9.0,72,0.00,,---,0.00,VWS V14.01,2013-07-25 18:39:00,
2013-07-25 13:42:00,86.5,75.6,29.96,ENE,57,3.0,9.0,70,0.00,,---,0.00,VWS V14.01,2013-07-25 18:42:00,
2013-07-25 13:48:00,86.7,74.9,29.97,NE,53,5.0,9.0,68,0.00,,---,0.00,VWS V14.01,2013-07-25 18:48:00,
2013-07-25 13:51:00,86.9,75.9,29.96,NNE,32,3.0,9.0,70,0.00,,---,0.00,VWS V14.01,2013-07-25 18:51:00,
2013-07-25 13:54:00,87.4,74.7,29.96,North,5,2.0,9.0,66,0.00,,---,0.00,VWS V14.01,2013-07-25 18:54:00,
2013-07-25 13:57:00,87.7,75.4,29.96,ENE,72,4.0,9.0,67,0.00,,---,0.00,VWS V14.01,2013-07-25 18:57:00,
2013-07-25 13:58:00,87.8,75.9,29.96,NE,53,5.0,9.0,68,0.00,,---,0.00,VWS V14.01,2013-07-25 18:58:00,
2013-07-25 14:00:00,88.2,75.0,29.96,NE,52,1.0,8.0,65,0.00,,---,0.00,VWS V14.01,2013-07-25 19:00:00,
2013-07-25 14:03:00,88.3,75.5,29.96,NE,39,5.0,9.0,66,0.00,,---,0.00,VWS V14.01,2013-07-25 19:03:00,
2013-07-25 14:06:00,88.4,74.7,29.95,ENE,73,4.0,9.0,64,0.00,,---,0.00,VWS V14.01,2013-07-25 19:06:00,
2013-07-25 14:09:00,88.6,74.4,29.95,NE,40,4.0,9.0,63,0.00,,---,0.00,VWS V14.01,2013-07-25 19:09:00,
2013-07-25 14:15:00,89.0,75.7,29.95,ENE,62,4.0,10.0,65,0.00,,---,0.00,VWS V14.01,2013-07-25 19:15:00,
2013-07-25 14:21:00,89.7,75.4,29.95,ENE,63,2.0,10.0,63,0.00,,---,0.00,VWS V14.01,2013-07-25 19:21:00,
2013-07-25 14:27:00,89.9,75.1,29.95,ENE,75,9.0,10.0,62,0.00,,---,0.00,VWS V14.01,2013-07-25 19:27:00,
2013-07-25 14:28:00,89.9,75.6,29.95,NE,55,2.0,11.0,63,0.00,,---,0.00,VWS V14.01,2013-07-25 19:28:00,
2013-07-25 14:33:00,90.1,75.8,29.94,ENE,73,2.0,10.0,63,0.00,,---,0.00,VWS V14.01,2013-07-25 19:33:00,
2013-07-25 14:39:00,90.4,75.6,29.94,NE,47,8.0,10.0,62,0.00,,---,0.00,VWS V14.01,2013-07-25 19:39:00,
2013-07-25 14:43:00,90.6,75.8,29.94,NE,54,8.0,10.0,62,0.00,,---,0.00,VWS V14.01,2013-07-25 19:43:00,
2013-07-25 14:49:00,91.1,75.3,29.94,East,91,5.0,10.0,60,0.00,,---,0.00,VWS V14.01,2013-07-25 19:49:00,
2013-07-25 14:55:00,91.1,75.8,29.93,NE,36,2.0,10.0,61,0.00,,---,0.00,VWS V14.01,2013-07-25 19:55:00,
2013-07-25 14:58:00,91.4,75.1,29.93,East,92,5.0,10.0,59,0.00,,---,0.00,VWS V14.01,2013-07-25 19:58:00,
2013-07-25 15:04:00,91.4,75.1,29.93,NNE,24,0.0,7.0,59,0.00,,---,0.00,VWS V14.01,2013-07-25 20:04:00,
2013-07-25 15:07:00,91.5,74.7,29.93,ESE,123,3.0,9.0,58,0.00,,---,0.00,VWS V14.01,2013-07-25 20:07:00,
2013-07-25 15:10:00,91.5,75.2,29.93,SE,143,0.0,9.0,59,0.00,,---,0.00,VWS V14.01,2013-07-25 20:10:00,
2013-07-25 15:13:00,91.8,75.9,29.93,SE,128,3.0,9.0,60,0.00,,---,0.00,VWS V14.01,2013-07-25 20:13:00,
2013-07-25 15:16:00,92.0,74.6,29.93,SE,140,0.0,9.0,57,0.00,,---,0.00,VWS V14.01,2013-07-25 20:16:00,
2013-07-25 15:19:00,92.0,74.6,29.93,SE,126,3.0,9.0,57,0.00,,---,0.00,VWS V14.01,2013-07-25 20:19:00,
2013-07-25 15:22:00,92.3,75.4,29.93,ESE,117,4.0,9.0,58,0.00,,---,0.00,VWS V14.01,2013-07-25 20:22:00,
2013-07-25 15:25:00,92.3,74.9,29.93,SE,130,1.0,9.0,57,0.00,,---,0.00,VWS V14.01,2013-07-25 20:25:00,
2013-07-25 15:28:00,92.4,73.3,29.93,East,82,1.0,9.0,54,0.00,,---,0.00,VWS V14.01,2013-07-25 20:28:00,
2013-07-25 15:34:00,92.3,73.8,29.92,SE,132,5.0,8.0,55,0.00,,---,0.00,VWS V14.01,2013-07-25 20:34:00,
2013-07-25 15:40:00,92.6,74.1,29.92,SSE,162,7.0,9.0,55,0.00,,---,0.00,VWS V14.01,2013-07-25 20:40:00,
2013-07-25 15:43:00,92.7,74.2,29.92,SE,126,4.0,9.0,55,0.00,,---,0.00,VWS V14.01,2013-07-25 20:43:00,
2013-07-25 15:46:00,92.7,73.6,29.92,SE,143,0.0,9.0,54,0.00,,---,0.00,VWS V14.01,2013-07-25 20:46:00,
2013-07-25 15:52:00,92.8,74.3,29.92,ESE,119,2.0,10.0,55,0.00,,---,0.00,VWS V14.01,2013-07-25 20:52:00,
2013-07-25 15:55:00,92.9,73.8,29.91,East,100,5.0,10.0,54,0.00,,---,0.00,VWS V14.01,2013-07-25 20:55:00,
2013-07-25 15:58:00,93.0,74.5,29.91,East,90,8.0,10.0,55,0.00,,---,0.00,VWS V14.01,2013-07-25 20:58:00,
2013-07-25 16:01:00,92.9,73.3,29.91,ESE,107,3.0,7.0,53,0.00,,---,0.00,VWS V14.01,2013-07-25 21:01:00,
2013-07-25 16:04:00,93.0,75.0,29.91,ESE,102,7.0,8.0,56,0.00,,---,0.00,VWS V14.01,2013-07-25 21:04:00,
2013-07-25 16:07:00,93.1,74.0,29.91,ESE,121,0.0,8.0,54,0.00,,---,0.00,VWS V14.01,2013-07-25 21:07:00,
2013-07-25 16:10:00,93.1,75.1,29.90,SE,143,4.0,10.0,56,0.00,,---,0.00,VWS V14.01,2013-07-25 21:10:00,
2013-07-25 16:16:00,93.6,75.0,29.90,SE,126,8.0,10.0,55,0.00,,---,0.00,VWS V14.01,2013-07-25 21:16:00,
2013-07-25 16:19:00,93.7,74.6,29.90,SE,139,5.0,10.0,54,0.00,,---,0.00,VWS V14.01,2013-07-25 21:19:00,
2013-07-25 16:22:00,93.8,72.9,29.90,SE,129,4.0,10.0,51,0.00,,---,0.00,VWS V14.01,2013-07-25 21:22:00,
2013-07-25 16:25:00,93.8,72.9,29.90,ESE,122,1.0,10.0,51,0.00,,---,0.00,VWS V14.01,2013-07-25 21:25:00,
2013-07-25 16:28:00,93.9,73.6,29.90,SE,146,5.0,10.0,52,0.00,,---,0.00,VWS V14.01,2013-07-25 21:28:00,
2013-07-25 16:34:00,93.8,73.5,29.90,East,86,2.0,7.0,52,0.00,,---,0.00,VWS V14.01,2013-07-25 21:34:00,
2013-07-25 16:37:00,93.8,73.5,29.90,ESE,107,5.0,7.0,52,0.00,,---,0.00,VWS V14.01,2013-07-25 21:37:00,
2013-07-25 16:43:00,93.4,73.7,29.89,ESE,115,7.0,10.0,53,0.00,,---,0.00,VWS V14.01,2013-07-25 21:43:00,
2013-07-25 16:50:00,94.0,73.7,29.89,SSE,166,4.0,10.0,52,0.00,,---,0.00,VWS V14.01,2013-07-25 21:50:00,
2013-07-25 16:53:00,94.1,73.2,29.89,ESE,104,4.0,10.0,51,0.00,,---,0.00,VWS V14.01,2013-07-25 21:53:00,
2013-07-25 16:56:00,94.2,73.3,29.89,ESE,107,0.0,10.0,51,0.00,,---,0.00,VWS V14.01,2013-07-25 21:56:00,
2013-07-25 16:59:00,94.4,74.6,29.89,SE,141,7.0,7.0,53,0.00,,---,0.00,VWS V14.01,2013-07-25 21:59:00,
2013-07-25 17:02:00,94.4,73.5,29.89,SE,138,2.0,9.0,51,0.00,,---,0.00,VWS V14.01,2013-07-25 22:02:00,
2013-07-25 17:05:00,94.4,73.5,29.89,ESE,103,9.0,9.0,51,0.00,,---,0.00,VWS V14.01,2013-07-25 22:05:00,
2013-07-25 17:08:00,94.3,73.4,29.89,ESE,107,3.0,9.0,51,0.00,,---,0.00,VWS V14.01,2013-07-25 22:08:00,
2013-07-25 17:14:00,94.0,73.7,29.88,SE,136,6.0,10.0,52,0.00,,---,0.00,VWS V14.01,2013-07-25 22:14:00,
2013-07-25 17:20:00,93.8,72.9,29.89,SSE,165,3.0,10.0,51,0.00,,---,0.00,VWS V14.01,2013-07-25 22:20:00,
2013-07-25 17:23:00,93.9,73.6,29.89,SSE,155,8.0,13.0,52,0.00,,---,0.00,VWS V14.01,2013-07-25 22:23:00,
2013-07-25 17:28:00,94.1,73.8,29.89,ESE,111,1.0,13.0,52,0.00,,---,0.00,VWS V14.01,2013-07-25 22:28:00,
2013-07-25 17:29:00,94.1,73.2,29.89,ESE,109,5.0,5.0,51,0.00,,---,0.00,VWS V14.01,2013-07-25 22:29:00,
2013-07-25 17:35:00,93.7,74.0,29.89,SE,145,2.0,7.0,53,0.00,,---,0.00,VWS V14.01,2013-07-25 22:35:00,
2013-07-25 17:38:00,93.7,72.8,29.89,SE,128,2.0,7.0,51,0.00,,---,0.00,VWS V14.01,2013-07-25 22:38:00,
2013-07-25 17:44:00,94.0,73.1,29.89,SSE,153,1.0,8.0,51,0.00,,---,0.00,VWS V14.01,2013-07-25 22:44:00,
2013-07-25 17:47:00,93.7,74.0,29.89,SSE,164,5.0,8.0,53,0.00,,---,0.00,VWS V14.01,2013-07-25 22:47:00,
2013-07-25 17:50:00,92.5,71.2,29.89,South,175,8.0,12.0,50,0.00,,---,0.00,VWS V14.01,2013-07-25 22:50:00,
2013-07-25 17:56:00,88.5,69.2,29.90,South,173,6.0,16.0,53,0.00,,---,0.00,VWS V14.01,2013-07-25 22:56:00,
2013-07-25 17:59:00,87.6,68.9,29.90,South,185,5.0,6.0,54,0.00,,---,0.00,VWS V14.01,2013-07-25 22:59:00,
2013-07-25 18:02:00,87.2,69.6,29.90,South,170,5.0,9.0,56,0.00,,---,0.00,VWS V14.01,2013-07-25 23:02:00,
2013-07-25 18:05:00,87.0,69.4,29.90,SSE,165,5.0,9.0,56,0.00,,---,0.00,VWS V14.01,2013-07-25 23:05:00,
2013-07-25 18:08:00,86.9,69.8,29.90,South,169,4.0,9.0,57,0.00,,---,0.00,VWS V14.01,2013-07-25 23:08:00,
2013-07-25 18:11:00,87.0,70.4,29.90,SSW,201,4.0,9.0,58,0.00,,---,0.00,VWS V14.01,2013-07-25 23:11:00,
2013-07-25 18:17:00,87.0,70.4,29.90,South,178,2.0,9.0,58,0.00,,---,0.00,VWS V14.01,2013-07-25 23:17:00,
2013-07-25 18:20:00,87.4,70.8,29.90,SSW,202,6.0,9.0,58,0.00,,---,0.00,VWS V14.01,2013-07-25 23:20:00,
2013-07-25 18:23:00,88.2,72.1,29.89,SSW,192,4.0,9.0,59,0.00,,---,0.00,VWS V14.01,2013-07-25 23:23:00,
2013-07-25 18:28:00,89.1,71.9,29.88,South,172,4.0,9.0,57,0.00,,---,0.00,VWS V14.01,2013-07-25 23:28:00,
2013-07-25 18:32:00,89.7,72.4,29.88,South,175,3.0,7.0,57,0.00,,---,0.00,VWS V14.01,2013-07-25 23:32:00,
2013-07-25 18:35:00,90.1,72.8,29.88,SSE,147,3.0,7.0,57,0.00,,---,0.00,VWS V14.01,2013-07-25 23:35:00,
2013-07-25 18:38:00,90.2,72.4,29.87,SSE,159,2.0,10.0,56,0.00,,---,0.00,VWS V14.01,2013-07-25 23:38:00,
2013-07-25 18:41:00,90.2,72.9,29.88,SSE,153,4.0,10.0,57,0.00,,---,0.00,VWS V14.01,2013-07-25 23:41:00,
2013-07-25 18:45:00,90.3,73.5,29.88,SSE,155,9.0,10.0,58,0.00,,---,0.00,VWS V14.01,2013-07-25 23:45:00,
2013-07-25 18:48:00,90.1,72.8,29.88,SSE,160,3.0,10.0,57,0.00,,---,0.00,VWS V14.01,2013-07-25 23:48:00,
2013-07-25 18:51:00,89.7,72.4,29.88,SSE,164,2.0,10.0,57,0.00,,---,0.00,VWS V14.01,2013-07-25 23:51:00,
2013-07-25 18:54:00,89.3,73.1,29.88,SSW,193,5.0,10.0,59,0.00,,---,0.00,VWS V14.01,2013-07-25 23:54:00,
2013-07-25 18:57:00,89.2,73.0,29.88,SSE,155,4.0,10.0,59,0.00,,---,0.00,VWS V14.01,2013-07-25 23:57:00,
2013-07-25 18:58:00,89.0,72.8,29.88,South,176,1.0,10.0,59,0.00,,---,0.00,VWS V14.01,2013-07-25 23:58:00,
2013-07-25 19:00:00,88.9,72.7,29.88,South,174,4.0,5.0,59,0.00,,---,0.00,VWS V14.01,2013-07-26 00:00:00,
2013-07-25 19:03:00,88.5,72.3,29.88,SE,136,5.0,6.0,59,0.00,,---,0.00,VWS V14.01,2013-07-26 00:03:00,
2013-07-25 19:06:00,88.1,72.0,29.88,SSE,150,0.0,7.0,59,0.00,,---,0.00,VWS V14.01,2013-07-26 00:06:00,
2013-07-25 19:09:00,87.8,71.2,29.89,SSE,155,3.0,7.0,58,0.00,,---,0.00,VWS V14.01,2013-07-26 00:09:00,
2013-07-25 19:12:00,87.5,71.4,29.89,South,169,1.0,7.0,59,0.00,,---,0.00,VWS V14.01,2013-07-26 00:12:00,
2013-07-25 19:15:00,87.3,71.7,29.89,South,175,0.0,7.0,60,0.00,,---,0.00,VWS V14.01,2013-07-26 00:15:00,
2013-07-25 19:18:00,87.0,71.4,29.89,South,171,2.0,7.0,60,0.00,,---,0.00,VWS V14.01,2013-07-26 00:18:00,
2013-07-25 19:24:00,86.6,70.6,29.89,SSE,149,0.0,7.0,59,0.00,,---,0.00,VWS V14.01,2013-07-26 00:24:00,
2013-07-25 19:27:00,86.4,70.9,29.89,South,172,3.0,7.0,60,0.00,,---,0.00,VWS V14.01,2013-07-26 00:27:00,
2013-07-25 19:28:00,86.4,70.9,29.89,South,172,0.0,7.0,60,0.00,,---,0.00,VWS V14.01,2013-07-26 00:28:00,
2013-07-25 19:33:00,86.1,71.6,29.89,South,172,0.0,0.0,62,0.00,,---,0.00,VWS V14.01,2013-07-26 00:33:00,
2013-07-25 19:46:00,85.2,70.7,29.88,SE,130,6.0,6.0,62,0.00,,---,0.00,VWS V14.01,2013-07-26 00:46:00,
2013-07-25 19:49:00,85.1,70.6,29.87,SE,146,0.0,6.0,62,0.00,,---,0.00,VWS V14.01,2013-07-26 00:49:00,
2013-07-25 19:55:00,84.9,70.0,29.88,SSE,162,2.0,6.0,61,0.00,,---,0.00,VWS V14.01,2013-07-26 00:55:00,
2013-07-25 19:58:00,84.7,69.3,29.88,SSE,167,2.0,6.0,60,0.00,,---,0.00,VWS V14.01,2013-07-26 00:58:00,
2013-07-25 20:01:00,84.7,69.3,29.88,SSE,164,0.0,3.0,60,0.00,,---,0.00,VWS V14.01,2013-07-26 01:01:00,
2013-07-25 20:04:00,84.6,69.2,29.88,SSE,159,0.0,3.0,60,0.00,,---,0.00,VWS V14.01,2013-07-26 01:04:00,
2013-07-25 20:10:00,84.4,69.5,29.88,SE,130,0.0,5.0,61,0.00,,---,0.00,VWS V14.01,2013-07-26 01:10:00,
2013-07-25 20:13:00,84.3,68.9,29.89,SE,130,2.0,5.0,60,0.00,,---,0.00,VWS V14.01,2013-07-26 01:13:00,
2013-07-25 20:16:00,84.2,69.3,29.89,SE,130,0.0,5.0,61,0.00,,---,0.00,VWS V14.01,2013-07-26 01:16:00,
2013-07-25 20:22:00,84.0,69.1,29.89,SE,130,0.0,5.0,61,0.00,,---,0.00,VWS V14.01,2013-07-26 01:22:00,
2013-07-25 20:25:00,83.9,69.0,29.89,SE,130,0.0,5.0,61,0.00,,---,0.00,VWS V14.01,2013-07-26 01:25:00,
2013-07-25 20:28:00,83.8,68.9,29.89,SE,130,2.0,5.0,61,0.00,,---,0.00,VWS V14.01,2013-07-26 01:28:00,
2013-07-25 20:34:00,83.6,69.2,29.89,SE,128,0.0,3.0,62,0.00,,---,0.00,VWS V14.01,2013-07-26 01:34:00,
2013-07-25 20:37:00,83.6,69.2,29.89,SE,128,0.0,3.0,62,0.00,,---,0.00,VWS V14.01,2013-07-26 01:37:00,
2013-07-25 20:43:00,83.4,69.0,29.89,SE,127,1.0,3.0,62,0.00,,---,0.00,VWS V14.01,2013-07-26 01:43:00,
2013-07-25 20:46:00,83.4,69.0,29.89,SE,127,0.0,3.0,62,0.00,,---,0.00,VWS V14.01,2013-07-26 01:46:00,
2013-07-25 20:49:00,83.4,69.0,29.89,SE,128,0.0,3.0,62,0.00,,---,0.00,VWS V14.01,2013-07-26 01:49:00,
2013-07-25 20:52:00,83.4,69.0,29.89,SE,128,0.0,3.0,62,0.00,,---,0.00,VWS V14.01,2013-07-26 01:52:00,
2013-07-25 20:55:00,83.4,69.0,29.89,SE,128,0.0,3.0,62,0.00,,---,0.00,VWS V14.01,2013-07-26 01:55:00,
2013-07-25 20:58:00,83.3,69.4,29.89,SE,128,0.0,3.0,63,0.00,,---,0.00,VWS V14.01,2013-07-26 01:58:00,
2013-07-25 21:01:00,83.2,69.3,29.89,SE,128,0.0,0.0,63,0.00,,---,0.00,VWS V14.01,2013-07-26 02:01:00,
2013-07-25 21:04:00,83.0,69.1,29.89,SE,128,0.0,0.0,63,0.00,,---,0.00,VWS V14.01,2013-07-26 02:04:00,
2013-07-25 21:10:00,82.8,69.4,29.90,SE,128,0.0,1.0,64,0.00,,---,0.00,VWS V14.01,2013-07-26 02:10:00,
2013-07-25 21:13:00,82.8,69.4,29.90,SE,128,0.0,1.0,64,0.00,,---,0.00,VWS V14.01,2013-07-26 02:13:00,
2013-07-25 21:16:00,82.8,69.4,29.90,SE,128,0.0,2.0,64,0.00,,---,0.00,VWS V14.01,2013-07-26 02:16:00,
2013-07-25 21:19:00,82.8,69.8,29.91,SE,128,0.0,2.0,65,0.00,,---,0.00,VWS V14.01,2013-07-26 02:19:00,
2013-07-25 21:23:00,82.7,69.8,29.91,SE,128,0.0,2.0,65,0.00,,---,0.00,VWS V14.01,2013-07-26 02:23:00,
2013-07-25 21:26:00,82.7,69.8,29.90,SE,128,0.0,2.0,65,0.00,,---,0.00,VWS V14.01,2013-07-26 02:26:00,
2013-07-25 21:28:00,82.7,69.8,29.90,SE,128,0.0,2.0,65,0.00,,---,0.00,VWS V14.01,2013-07-26 02:28:00,
2013-07-25 21:29:00,82.7,69.8,29.90,SE,128,0.0,0.0,65,0.00,,---,0.00,VWS V14.01,2013-07-26 02:29:00,
2013-07-25 21:35:00,82.6,69.7,29.90,SE,128,0.0,0.0,65,0.00,,---,0.00,VWS V14.01,2013-07-26 02:35:00,
2013-07-25 21:38:00,82.6,69.7,29.90,SE,128,0.0,3.0,65,0.00,,---,0.00,VWS V14.01,2013-07-26 02:38:00,
2013-07-25 21:44:00,82.6,70.1,29.90,SE,128,0.0,3.0,66,0.00,,---,0.00,VWS V14.01,2013-07-26 02:44:00,
2013-07-25 21:47:00,82.5,70.0,29.90,SE,128,0.0,3.0,66,0.00,,---,0.00,VWS V14.01,2013-07-26 02:47:00,
2013-07-25 21:50:00,82.3,70.3,29.90,SE,128,0.0,3.0,67,0.00,,---,0.00,VWS V14.01,2013-07-26 02:50:00,
2013-07-25 21:53:00,82.1,70.1,29.90,SE,128,0.0,3.0,67,0.00,,---,0.00,VWS V14.01,2013-07-26 02:53:00,
2013-07-25 21:56:00,82.0,70.0,29.90,SE,128,0.0,3.0,67,0.00,,---,0.00,VWS V14.01,2013-07-26 02:56:00,
2013-07-25 21:59:00,81.9,70.3,29.90,SE,128,0.0,0.0,68,0.00,,---,0.00,VWS V14.01,2013-07-26 02:59:00,
2013-07-25 22:02:00,81.9,70.3,29.90,SE,128,0.0,1.0,68,0.00,,---,0.00,VWS V14.01,2013-07-26 03:02:00,
2013-07-25 22:04:00,84.5,71.4,29.88,SE,134,4.0,13.0,65,0.00,,---,0.00,VWS V14.01,2013-07-26 03:04:00,
2013-07-25 22:05:00,81.8,70.2,29.90,SE,128,0.0,2.0,68,0.00,,---,0.00,VWS V14.01,2013-07-26 03:05:00,
2013-07-25 22:07:00,84.5,71.4,29.88,SSE,157,7.0,13.0,65,0.00,,---,0.00,VWS V14.01,2013-07-26 03:07:00,
2013-07-25 22:08:00,81.8,70.2,29.90,SE,128,0.0,2.0,68,0.00,,---,0.00,VWS V14.01,2013-07-26 03:08:00,
2013-07-25 22:10:00,84.6,71.6,29.88,SSE,153,3.0,13.0,65,0.00,,---,0.00,VWS V14.01,2013-07-26 03:10:00,
2013-07-25 22:13:00,84.6,71.6,29.89,SE,138,2.0,13.0,65,0.00,,---,0.00,VWS V14.01,2013-07-26 03:13:00,
2013-07-25 22:14:00,81.6,70.4,29.89,SSE,150,0.0,3.0,69,0.00,,---,0.00,VWS V14.01,2013-07-26 03:14:00,
2013-07-25 22:16:00,84.6,71.6,29.89,SSE,157,3.0,13.0,65,0.00,,---,0.00,VWS V14.01,2013-07-26 03:16:00,
2013-07-25 22:17:00,81.6,70.4,29.89,SE,146,3.0,4.0,69,0.00,,---,0.00,VWS V14.01,2013-07-26 03:17:00,
2013-07-25 22:19:00,84.6,71.6,29.89,SSE,149,6.0,13.0,65,0.00,,---,0.00,VWS V14.01,2013-07-26 03:19:00,
2013-07-25 22:20:00,81.6,70.4,29.90,SE,144,2.0,4.0,69,0.00,,---,0.00,VWS V14.01,2013-07-26 03:20:00,
2013-07-25 22:22:00,84.6,71.6,29.90,SSE,147,4.0,13.0,65,0.00,,---,0.00,VWS V14.01,2013-07-26 03:22:00,
2013-07-25 22:23:00,81.6,70.4,29.90,SE,146,3.0,4.0,69,0.00,,---,0.00,VWS V14.01,2013-07-26 03:23:00,
2013-07-25 22:25:00,84.5,71.4,29.90,SE,143,3.0,13.0,65,0.00,,---,0.00,VWS V14.01,2013-07-26 03:25:00,
2013-07-25 22:28:00,81.9,70.3,29.89,SSE,148,2.0,7.0,68,0.00,,---,0.00,VWS V14.01,2013-07-26 03:28:00,
2013-07-25 22:29:00,82.0,70.4,29.89,SSE,148,3.0,4.0,68,0.00,,---,0.00,VWS V14.01,2013-07-26 03:29:00,
2013-07-25 22:30:00,84.4,71.4,29.90,SSE,158,4.0,13.0,65,0.00,,---,0.00,VWS V14.01,2013-07-26 03:30:00,
2013-07-25 22:31:00,84.4,71.4,29.90,SSE,155,3.0,6.0,65,0.00,,---,0.00,VWS V14.01,2013-07-26 03:31:00,
2013-07-25 22:32:00,82.2,70.6,29.89,SSE,152,3.0,7.0,68,0.00,,---,0.00,VWS V14.01,2013-07-26 03:32:00,
2013-07-25 22:34:00,84.4,71.4,29.90,SSE,154,4.0,10.0,65,0.00,,---,0.00,VWS V14.01,2013-07-26 03:34:00,
2013-07-25 22:35:00,82.5,70.9,29.89,SE,144,3.0,7.0,68,0.00,,---,0.00,VWS V14.01,2013-07-26 03:35:00,
2013-07-25 22:37:00,84.4,71.4,29.90,SSE,153,3.0,10.0,65,0.00,,---,0.00,VWS V14.01,2013-07-26 03:37:00,
2013-07-25 22:40:00,84.3,71.3,29.90,SSE,148,4.0,10.0,65,0.00,,---,0.00,VWS V14.01,2013-07-26 03:40:00,
2013-07-25 22:41:00,83.1,71.0,29.88,SSE,158,6.0,9.0,67,0.00,,---,0.00,VWS V14.01,2013-07-26 03:41:00,
2013-07-25 22:43:00,84.2,71.6,29.90,SE,138,3.0,10.0,66,0.00,,---,0.00,VWS V14.01,2013-07-26 03:43:00,
2013-07-25 22:44:00,83.5,71.4,29.88,SE,130,6.0,10.0,67,0.00,,---,0.00,VWS V14.01,2013-07-26 03:44:00,
2013-07-25 22:46:00,84.2,71.6,29.90,SE,145,3.0,10.0,66,0.00,,---,0.00,VWS V14.01,2013-07-26 03:46:00,
2013-07-25 22:47:00,83.8,71.2,29.88,SE,131,4.0,13.0,66,0.00,,---,0.00,VWS V14.01,2013-07-26 03:47:00,
2013-07-25 22:49:00,84.1,71.5,29.90,SE,141,5.0,10.0,66,0.00,,---,0.00,VWS V14.01,2013-07-26 03:49:00,
2013-07-25 22:50:00,84.1,71.5,29.88,SSE,148,8.0,13.0,66,0.00,,---,0.00,VWS V14.01,2013-07-26 03:50:00,
2013-07-25 22:52:00,84.0,71.4,29.90,SSE,153,3.0,10.0,66,0.00,,---,0.00,VWS V14.01,2013-07-26 03:52:00,
2013-07-25 22:53:00,84.3,71.3,29.88,SSE,152,5.0,13.0,65,0.00,,---,0.00,VWS V14.01,2013-07-26 03:53:00,
2013-07-25 22:55:00,83.9,71.3,29.90,SE,136,6.0,10.0,66,0.00,,---,0.00,VWS V14.01,2013-07-26 03:55:00,
2013-07-25 22:56:00,84.5,71.4,29.88,SE,143,9.0,13.0,65,0.00,,---,0.00,VWS V14.01,2013-07-26 03:56:00,
2013-07-25 22:58:00,84.5,71.4,29.88,SSE,157,4.0,13.0,65,0.00,,---,0.00,VWS V14.01,2013-07-26 03:58:00,
2013-07-25 22:59:00,84.4,71.4,29.88,SSE,148,11.0,11.0,65,0.00,,---,0.00,VWS V14.01,2013-07-26 03:59:00,
2013-07-25 23:00:00,83.9,71.3,29.90,SE,139,4.0,10.0,66,0.00,,---,0.00,VWS V14.01,2013-07-26 04:00:00,
2013-07-25 23:01:00,83.9,71.3,29.90,SSE,150,3.0,8.0,66,0.00,,---,0.00,VWS V14.01,2013-07-26 04:01:00,
2013-07-25 23:04:00,83.8,71.7,29.90,SSE,168,6.0,8.0,67,0.00,,---,0.00,VWS V14.01,2013-07-26 04:04:00,
2013-07-25 23:10:00,83.8,71.7,29.90,SSE,156,6.0,9.0,67,0.00,,---,0.00,VWS V14.01,2013-07-26 04:10:00,
2013-07-25 23:13:00,83.7,71.6,29.90,SSE,152,5.0,9.0,67,0.00,,---,0.00,VWS V14.01,2013-07-26 04:13:00,
2013-07-25 23:16:00,83.6,71.5,29.90,SE,130,6.0,9.0,67,0.00,,---,0.00,VWS V14.01,2013-07-26 04:16:00,
2013-07-25 23:19:00,83.5,71.4,29.90,SE,142,5.0,9.0,67,0.00,,---,0.00,VWS V14.01,2013-07-26 04:19:00,
2013-07-25 23:22:00,83.4,71.7,29.90,SSE,158,3.0,9.0,68,0.00,,---,0.00,VWS V14.01,2013-07-26 04:22:00,
2013-07-25 23:25:00,83.4,71.7,29.90,SE,140,5.0,9.0,68,0.00,,---,0.00,VWS V14.01,2013-07-26 04:25:00,
2013-07-25 23:28:00,83.3,71.6,29.89,SSE,157,4.0,9.0,68,0.00,,---,0.00,VWS V14.01,2013-07-26 04:28:00,
2013-07-25 23:30:00,83.3,71.6,29.90,SSE,149,7.0,9.0,68,0.00,,---,0.00,VWS V14.01,2013-07-26 04:30:00,
2013-07-25 23:31:00,83.3,71.6,29.90,SSE,157,4.0,10.0,68,0.00,,---,0.00,VWS V14.01,2013-07-26 04:31:00,
2013-07-25 23:35:00,83.3,71.6,29.89,SSE,152,4.0,10.0,68,0.00,,---,0.00,VWS V14.01,2013-07-26 04:35:00,
2013-07-25 23:38:00,83.3,71.6,29.89,SSE,155,6.0,10.0,68,0.00,,---,0.00,VWS V14.01,2013-07-26 04:38:00,
2013-07-25 23:41:00,83.3,71.6,29.89,SSE,147,3.0,10.0,68,0.00,,---,0.00,VWS V14.01,2013-07-26 04:41:00,
2013-07-25 23:44:00,83.3,71.6,29.89,SE,137,7.0,10.0,68,0.00,,---,0.00,VWS V14.01,2013-07-26 04:44:00,
2013-07-25 23:47:00,83.2,71.6,29.88,SSE,161,7.0,10.0,68,0.00,,---,0.00,VWS V14.01,2013-07-26 04:47:00,
2013-07-25 23:50:00,83.2,71.6,29.89,SE,146,3.0,10.0,68,0.00,,---,0.00,VWS V14.01,2013-07-26 04:50:00,
2013-07-25 23:53:00,83.1,71.4,29.88,SE,138,5.0,10.0,68,0.00,,---,0.00,VWS V14.01,2013-07-26 04:53:00,
2013-07-25 23:56:00,83.0,71.8,29.88,SE,139,3.0,10.0,69,0.00,,---,0.00,VWS V14.01,2013-07-26 04:56:00,
2013-07-25 23:59:00,82.9,71.7,29.88,SE,146,2.0,10.0,69,0.00,,---,0.00,VWS V14.01,2013-07-26 04:59:00,